createdAt,value
2023-03-21T00:01:27.699Z,8.40
2023-03-21T00:05:31.771Z,10.20
2023-03-21T00:09:35.514Z,9.93
2023-03-21T00:13:42.852Z,9.40
2023-03-21T00:17:51.092Z,10.23
2023-03-21T00:22:07.145Z,10.47
2023-03-21T00:26:44.184Z,9.47
2023-03-21T00:30:49.301Z,10.23
2023-03-21T00:35:47.931Z,10.77
2023-03-21T00:39:37.528Z,10.50
2023-03-21T00:43:49.720Z,11.60
2023-03-21T00:47:54.850Z,10.40
2023-03-21T00:52:08.706Z,9.90
2023-03-21T00:56:25.026Z,9.50
2023-03-21T01:00:29.014Z,8.77
2023-03-21T01:04:35.665Z,9.93
2023-03-21T01:08:52.261Z,10.47
2023-03-21T01:12:56.614Z,8.83
2023-03-21T01:17:00.312Z,9.93
2023-03-21T01:21:53.743Z,9.43
2023-03-21T01:25:58.955Z,9.57
2023-03-21T01:30:04.207Z,9.53
2023-03-21T01:35:05.244Z,9.07
2023-03-21T01:39:08.961Z,7.73
2023-03-21T01:43:43.755Z,9.47
2023-03-21T01:47:47.705Z,8.53
2023-03-21T01:52:11.497Z,9.03
2023-03-21T02:01:03.010Z,8.80
2023-03-21T02:05:24.068Z,7.80
2023-03-21T02:09:54.575Z,8.70
2023-03-21T02:14:06.177Z,7.33
2023-03-21T02:18:40.263Z,8.10
2023-03-21T02:23:43.460Z,8.70
2023-03-21T02:27:51.764Z,7.93
2023-03-21T02:32:31.533Z,7.07
2023-03-21T02:36:56.847Z,7.87
2023-03-21T02:41:13.237Z,7.60
2023-03-21T02:45:25.296Z,6.83
2023-03-21T02:49:49.294Z,8.37
2023-03-21T02:58:25.064Z,7.70
2023-03-21T03:02:41.902Z,7.63
2023-03-21T03:07:05.336Z,7.13
2023-03-21T03:11:25.592Z,7.17
2023-03-21T03:15:39.816Z,7.30
2023-03-21T03:20:16.396Z,6.63
2023-03-21T03:24:26.277Z,6.47
2023-03-21T03:28:39.110Z,7.20
2023-03-21T03:32:53.805Z,7.90
2023-03-21T03:37:06.327Z,7.07
2023-03-21T03:41:19.336Z,7.37
2023-03-21T03:45:48.385Z,7.57
2023-03-21T03:49:59.512Z,6.07
2023-03-21T03:54:06.878Z,5.47
2023-03-21T03:58:23.906Z,6.43
2023-03-21T04:02:32.380Z,6.70
2023-03-21T04:11:37.224Z,5.87
2023-03-21T04:15:40.846Z,6.93
2023-03-21T04:20:11.406Z,5.23
2023-03-21T04:24:18.883Z,5.63
2023-03-21T04:28:25.474Z,4.97
2023-03-21T04:32:40.998Z,8.03
2023-03-21T04:36:57.481Z,6.20
2023-03-21T04:41:01.411Z,6.87
2023-03-21T04:45:07.894Z,6.07
2023-03-21T04:49:11.731Z,5.87
2023-03-21T04:53:23.246Z,6.57
2023-03-21T04:58:16.964Z,6.60
2023-03-21T05:02:22.348Z,6.13
2023-03-21T05:06:30.202Z,6.07
2023-03-21T05:10:35.254Z,6.00
2023-03-21T05:14:39.024Z,5.23
2023-03-21T05:18:43.951Z,3.77
2023-03-21T05:22:53.938Z,5.13
2023-03-21T05:27:35.183Z,5.07
2023-03-21T05:31:43.289Z,4.63
2023-03-21T05:35:59.542Z,4.53
2023-03-21T05:40:08.372Z,3.90
2023-03-21T05:49:57.329Z,3.33
2023-03-21T05:54:01.930Z,4.97
2023-03-21T05:58:06.513Z,3.93
2023-03-21T06:02:10.339Z,6.03
2023-03-21T06:06:41.353Z,5.73
2023-03-21T06:10:47.149Z,6.37
2023-03-21T06:14:55.745Z,5.33
2023-03-21T06:19:06.302Z,5.43
2023-03-21T06:23:30.382Z,5.43
2023-03-21T06:27:36.789Z,5.00
2023-03-21T06:31:42.911Z,5.33
2023-03-21T06:35:46.779Z,5.53
2023-03-21T06:39:51.196Z,5.03
2023-03-21T06:43:58.422Z,5.60
2023-03-21T06:48:02.795Z,5.70
2023-03-21T06:52:29.091Z,5.63
2023-03-21T06:56:33.024Z,5.17
2023-03-21T07:00:41.010Z,6.07
2023-03-21T07:05:00.138Z,6.13
2023-03-21T07:09:30.922Z,5.50
2023-03-21T07:13:42.731Z,4.73
2023-03-21T07:17:48.046Z,5.53
2023-03-21T07:21:57.884Z,5.33
2023-03-21T07:26:01.996Z,5.00
2023-03-21T07:30:06.786Z,5.87
2023-03-21T07:34:11.880Z,4.33
2023-03-21T07:38:18.039Z,4.30
2023-03-21T07:42:21.826Z,5.13
2023-03-21T07:46:36.067Z,5.30
2023-03-21T07:50:41.962Z,5.40
2023-03-21T07:55:01.160Z,5.03
2023-03-21T08:05:05.669Z,4.67
2023-03-21T08:09:11.010Z,5.33
2023-03-21T08:13:15.025Z,5.93
2023-03-21T08:17:45.821Z,5.50
2023-03-21T08:22:17.518Z,5.43
2023-03-21T08:26:25.942Z,6.47
2023-03-21T08:30:37.148Z,5.77
2023-03-21T08:34:43.074Z,6.57
2023-03-21T08:38:48.672Z,6.17
2023-03-21T08:42:53.834Z,6.13
2023-03-21T08:46:58.734Z,6.10
2023-03-21T08:51:02.476Z,6.17
2023-03-21T08:55:06.884Z,5.57
2023-03-21T08:59:11.862Z,5.23
2023-03-21T09:03:15.533Z,4.80
2023-03-21T09:07:20.331Z,4.77
2023-03-21T09:11:23.992Z,6.00
2023-03-21T09:15:31.897Z,5.20
2023-03-21T09:19:35.750Z,4.83
2023-03-21T09:24:46.496Z,4.73
2023-03-21T09:28:50.610Z,4.10
2023-03-21T09:32:56.094Z,5.23
2023-03-21T09:37:11.455Z,5.03
2023-03-21T09:41:34.018Z,4.93
2023-03-21T09:45:45.187Z,5.73
2023-03-21T09:49:56.608Z,4.97
2023-03-21T09:54:24.554Z,4.70
2023-03-21T09:59:28.744Z,4.00
2023-03-21T10:03:36.099Z,4.03
2023-03-21T10:07:45.058Z,4.90
2023-03-21T10:11:58.298Z,4.83
2023-03-21T10:16:14.364Z,4.23
2023-03-21T10:20:21.576Z,4.10
2023-03-21T10:24:29.334Z,3.43
2023-03-21T10:28:52.331Z,3.03
2023-03-21T10:32:59.742Z,3.67
2023-03-21T10:37:05.854Z,2.73
2023-03-21T10:41:12.342Z,3.17
2023-03-21T10:45:20.918Z,3.40
2023-03-21T10:49:26.736Z,3.03
2023-03-21T10:53:34.287Z,3.13
2023-03-21T10:57:43.247Z,3.10
2023-03-21T11:01:51.835Z,3.47
2023-03-21T11:06:29.814Z,2.87
2023-03-21T11:10:35.442Z,2.90
2023-03-21T11:14:43.276Z,2.73
2023-03-21T11:18:58.665Z,2.90
2023-03-21T11:23:05.000Z,3.27
2023-03-21T11:27:09.804Z,2.23
2023-03-21T11:31:18.169Z,2.13
2023-03-21T11:35:25.240Z,2.10
2023-03-21T11:39:41.512Z,1.90
2023-03-21T11:43:59.155Z,1.40
2023-03-21T11:48:14.238Z,2.00
2023-03-21T11:52:39.839Z,1.93
2023-03-21T11:56:47.780Z,1.60
2023-03-21T12:01:01.221Z,2.00
2023-03-21T12:05:24.294Z,1.90
2023-03-21T12:09:56.797Z,1.87
2023-03-21T12:14:12.887Z,1.93
2023-03-21T12:18:38.864Z,2.50
2023-03-21T12:23:00.117Z,2.17
2023-03-21T12:27:12.317Z,2.43
2023-03-21T12:31:23.383Z,1.87
2023-03-21T12:35:44.872Z,2.03
2023-03-21T12:39:52.011Z,2.20
2023-03-21T12:44:57.368Z,2.17
2023-03-21T12:49:04.449Z,1.90
2023-03-21T12:53:30.212Z,2.00
2023-03-21T12:57:40.116Z,2.63
2023-03-21T13:02:28.689Z,1.37
2023-03-21T13:06:33.013Z,2.70
2023-03-21T13:10:37.432Z,2.33
2023-03-21T13:14:50.970Z,1.80
2023-03-21T13:19:16.847Z,3.23
2023-03-21T13:23:22.681Z,4.07
2023-03-21T13:27:32.573Z,2.60
2023-03-21T13:31:51.387Z,3.40
2023-03-21T13:36:06.482Z,4.07
2023-03-21T13:40:23.345Z,2.97
2023-03-21T13:44:41.355Z,3.00
2023-03-21T13:49:14.464Z,3.17
2023-03-21T13:53:37.922Z,1.87
2023-03-21T13:57:41.750Z,3.30
2023-03-21T14:02:09.835Z,2.93
2023-03-21T14:06:16.484Z,1.93
2023-03-21T14:10:31.372Z,1.67
2023-03-21T14:14:39.591Z,1.70
2023-03-21T14:18:54.073Z,1.70
2023-03-21T14:23:17.565Z,2.30
2023-03-21T14:27:21.732Z,1.80
2023-03-21T14:31:26.249Z,1.73
2023-03-21T14:35:34.707Z,1.30
2023-03-21T14:39:39.906Z,1.43
2023-03-21T14:43:43.644Z,1.43
2023-03-21T14:48:01.670Z,1.50
2023-03-21T14:52:08.997Z,1.53
2023-03-21T14:56:31.383Z,1.33
2023-03-21T15:00:41.141Z,1.10
2023-03-21T15:04:46.360Z,1.20
2023-03-21T15:08:57.379Z,0.97
2023-03-21T15:13:25.848Z,0.90
2023-03-21T15:17:30.889Z,1.13
2023-03-21T15:21:39.450Z,0.80
2023-03-21T15:25:43.762Z,0.67
2023-03-21T15:30:22.557Z,0.83
2023-03-21T15:34:31.243Z,0.60
2023-03-21T15:38:41.311Z,1.00
2023-03-21T15:42:45.068Z,0.80
2023-03-21T15:46:50.708Z,0.67
2023-03-21T15:51:53.176Z,0.90
2023-03-21T15:56:10.773Z,1.00
2023-03-21T16:00:46.088Z,0.80
2023-03-21T16:05:03.259Z,0.80
2023-03-21T16:09:14.334Z,1.20
2023-03-21T16:13:19.631Z,0.80
2023-03-21T16:17:39.947Z,1.10
2023-03-21T16:21:43.833Z,1.20
2023-03-21T16:26:39.656Z,0.87
2023-03-21T16:30:45.937Z,0.87
2023-03-21T16:34:49.763Z,0.90
2023-03-21T16:39:20.591Z,0.90
2023-03-21T16:43:49.261Z,0.90
2023-03-21T16:48:16.732Z,0.70
2023-03-21T16:52:20.945Z,0.90
2023-03-21T16:56:27.636Z,0.80
2023-03-21T17:00:32.187Z,0.63
2023-03-21T17:04:51.745Z,0.70
2023-03-21T17:08:57.266Z,0.50
2023-03-21T17:13:01.811Z,0.60
2023-03-21T17:18:18.422Z,0.67
2023-03-21T17:22:23.651Z,0.67
2023-03-21T17:26:29.547Z,0.60
2023-03-21T17:30:42.087Z,0.70
2023-03-21T17:34:46.008Z,0.93
2023-03-21T17:38:53.087Z,0.90
2023-03-21T17:43:23.643Z,0.90
2023-03-21T17:47:40.034Z,1.00
2023-03-21T17:51:47.221Z,1.07
2023-03-21T17:55:52.392Z,1.20
2023-03-21T17:59:57.097Z,1.80
2023-03-21T18:04:05.050Z,1.00
2023-03-21T18:08:11.990Z,1.10
2023-03-21T18:12:17.696Z,1.07
2023-03-21T18:17:16.658Z,0.77
2023-03-21T18:21:20.545Z,0.80
2023-03-21T18:25:26.518Z,0.60
2023-03-21T18:34:01.135Z,0.60
2023-03-21T18:38:06.889Z,0.67
2023-03-21T18:42:16.781Z,0.50
2023-03-21T18:46:47.282Z,0.63
2023-03-21T18:50:51.216Z,0.80
2023-03-21T18:55:05.588Z,1.00
2023-03-21T18:59:12.015Z,0.97
2023-03-21T19:03:30.125Z,0.70
2023-03-21T19:07:39.997Z,0.70
2023-03-21T19:11:48.775Z,0.80
2023-03-21T19:15:53.929Z,0.60
2023-03-21T19:19:59.334Z,0.70
2023-03-21T19:24:29.508Z,0.77
2023-03-21T19:28:33.364Z,0.80
2023-03-21T19:33:03.385Z,0.90
2023-03-21T19:37:08.590Z,0.83
2023-03-21T19:41:12.451Z,0.90
2023-03-21T19:45:49.003Z,1.00
2023-03-21T19:54:19.760Z,0.90
2023-03-21T19:58:23.499Z,1.10
2023-03-21T20:02:35.623Z,1.30
2023-03-21T20:06:47.783Z,1.20
2023-03-21T20:11:15.420Z,1.17
2023-03-21T20:15:21.631Z,1.27
2023-03-21T20:19:36.479Z,1.40
2023-03-21T20:23:40.460Z,1.60
2023-03-21T20:27:46.307Z,1.80
2023-03-21T20:32:40.899Z,1.63
2023-03-21T20:36:44.749Z,1.90
2023-03-21T20:40:48.429Z,2.13
2023-03-21T20:44:59.035Z,1.70
2023-03-21T20:49:05.952Z,2.40
2023-03-21T20:53:12.859Z,2.83
2023-03-21T20:57:42.494Z,2.30
2023-03-21T21:01:48.468Z,3.00
2023-03-21T21:06:19.483Z,2.57
2023-03-21T21:10:23.438Z,2.60
2023-03-21T21:14:27.217Z,2.13
2023-03-21T21:19:12.788Z,2.33
2023-03-21T21:23:17.973Z,1.80
2023-03-21T21:27:25.295Z,2.03
2023-03-21T21:31:29.547Z,2.53
2023-03-21T21:35:55.744Z,2.93
2023-03-21T21:40:01.075Z,2.40
2023-03-21T21:44:04.919Z,2.43
2023-03-21T21:48:34.389Z,2.17
2023-03-21T21:52:43.922Z,2.23
2023-03-21T21:56:57.346Z,2.20
2023-03-21T22:01:30.357Z,2.23
2023-03-21T22:05:39.579Z,2.90
2023-03-21T22:09:44.737Z,2.57
2023-03-21T22:13:50.065Z,1.90
2023-03-21T22:18:01.112Z,2.07
2023-03-21T22:22:04.964Z,2.20
2023-03-21T22:26:49.994Z,1.93
2023-03-21T22:30:55.434Z,2.57
2023-03-21T22:34:59.460Z,1.90
2023-03-21T22:39:03.238Z,3.00
2023-03-21T22:43:08.541Z,3.00
2023-03-21T22:47:40.933Z,3.50
2023-03-21T22:51:45.102Z,4.20
2023-03-21T22:56:15.130Z,3.83
2023-03-21T23:01:00.317Z,4.63
2023-03-21T23:05:30.362Z,4.93
2023-03-21T23:09:43.155Z,5.43
2023-03-21T23:13:58.706Z,5.20
2023-03-21T23:18:17.258Z,4.90
2023-03-21T23:22:22.353Z,4.50
2023-03-21T23:26:33.657Z,4.60
2023-03-21T23:30:39.042Z,4.73
2023-03-21T23:34:42.919Z,4.37
2023-03-21T23:38:52.916Z,4.67
2023-03-21T23:42:56.474Z,4.53
2023-03-21T23:47:00.018Z,4.20
2023-03-21T23:51:03.676Z,4.43
2023-03-21T23:55:10.014Z,4.60
2023-03-21T23:59:13.536Z,4.23
